Flugplatz Itzehoe/Hungriger Wolf

Für EDHF sind keine METAR/TAF Berichte vorhanden.
Es werden die Flugwettermeldungen vom Flugplatz Hohn Airport in 35 km Entfernung angezeigt.

Bericht für ETNH

vom 07.03. um 02:20 UTC

Wind 17 kt aus 280°

Sichtweite 10 km oder mehr

aufgebrochene Bewölkung in 2400 ft

Temperatur 3.0°C

Taupunkt -2.0°C

Luftfeuchtigkeit 70%

Luftdruck 1023 hPa

ETNH 070220Z 28017KT 9999 BKN024 03/M02 Q1023 WHT

Prognose für ETNH

vom 06.03. um 23:00 UTC

Zwischen 00:00 UTC und 12:00 UTC

Wind 10 kt aus 270° in Böen 20 kt

Sichtweite 10 km oder mehr

keine signifikanten Wettererscheinungen

aufgebrochene Bewölkung in 3000 ft


Zwischen 00:00 UTC und 10:00 UTC zeitweise

Wind 12 kt aus 280° in Böen 22 kt

Sichtweite 10 km oder mehr

keine signifikanten Wettererscheinungen

aufgebrochene Bewölkung in 2000 ft


Zwischen 10:00 UTC und 12:00 UTC zeitweise

Wind 15 kt aus 300° in Böen 25 kt

Sichtweite 5000 m

schwacher Regenschauer

aufgebrochene Bewölkung in 1500 ft

TAF ETNH 062300Z 0700/0712 27010G20KT 9999 NSW BKN030 TEMPO 0700/0710 28012G22KT 9999 NSW BKN020 TEMPO 0710/0712 30015G25KT 5000 -SHRA BKN015TCU BY ETGL
Impressum